Time;durP1;ratioP1;P1;durP2;ratioP2;P2;SDS_P1;SDS_P2;PMS_P1;PMS_P2;Temp;Humidity;BMP_temperature;BMP_pressure;BME280_temperature;BME280_humidity;BME280_pressure;Samples;Min_cycle;Max_cycle;Signal;HPM_P1;HPM_P2
2021/11/10 00:04:35;;;;;;;102.40;49.15;;;;;;;0.46;93.97;100615.27;4048351;87;21568;-87
2021/11/10 00:10:37;;;;;;;96.95;42.60;;;;;;;0.63;93.75;100615.80;4045608;86;21084;-89
2021/11/10 00:16:39;;;;;;;87.65;40.35;;;;;;;0.83;94.27;100623.33;4046929;87;21644;-88
2021/11/10 00:22:41;;;;;;;99.45;45.60;;;;;;;0.81;93.30;100628.21;4041265;87;21133;-89
2021/11/10 00:28:42;;;;;;;100.25;47.48;;;;;;;0.81;93.30;100628.21;4043199;87;21153;-91
2021/11/10 00:34:45;;;;;;;89.00;42.23;;;;;;;0.72;93.94;100629.81;4041470;87;21062;-88
2021/11/10 00:40:46;;;;;;;94.07;44.30;;;;;;;0.76;94.18;100626.05;4061694;86;21066;-87
2021/11/10 00:46:47;;;;;;;117.10;51.50;;;;;;;0.92;94.84;100645.17;4138437;84;22436;-86
2021/11/10 00:52:49;;;;;;;153.65;56.37;;;;;;;0.90;94.29;100649.49;4053941;86;21118;-87
2021/11/10 00:58:50;;;;;;;144.40;49.80;;;;;;;0.70;93.72;100601.53;4143275;84;21159;-89
2021/11/10 01:04:52;;;;;;;107.32;47.43;;;;;;;0.62;93.62;100618.24;4132354;84;21062;-88
2021/11/10 01:10:55;;;;;;;106.20;40.60;;;;;;;0.60;94.02;100609.08;4060344;86;21129;-92
2021/11/10 01:16:58;;;;;;;84.17;37.55;;;;;;;0.14;93.52;100584.58;4059044;86;21061;-90
2021/11/10 01:23:03;;;;;;;74.10;33.05;;;;;;;0.14;93.52;100584.58;3996943;88;21593;-91
2021/11/10 01:29:07;;;;;;;56.77;24.00;;;;;;;0.12;93.86;100590.77;3984313;88;21680;-88
2021/11/10 01:35:10;;;;;;;68.47;31.05;;;;;;;-0.07;94.33;100563.55;3981128;88;21415;-88
2021/11/10 01:41:13;;;;;;;62.88;32.75;;;;;;;-0.07;94.33;100563.55;4047506;87;22025;-91
2021/11/10 01:47:18;;;;;;;62.45;33.40;;;;;;;0.15;94.89;100592.09;4027526;87;22446;-88
2021/11/10 01:53:26;;;;;;;63.10;32.83;;;;;;;0.32;94.75;100587.25;4055624;86;21101;-89
2021/11/10 01:59:44;;;;;;;67.78;32.63;;;;;;;0.55;94.84;100600.99;4016687;87;21026;-88
2021/11/10 02:05:55;;;;;;;70.97;33.23;;;;;;;0.65;93.96;100610.96;4056419;86;21090;-87
2021/11/10 02:12:07;;;;;;;72.20;33.38;;;;;;;0.54;93.65;100580.52;3973142;87;21042;-88
2021/11/10 02:18:11;;;;;;;109.50;34.80;;;;;;;0.48;93.82;100576.75;4061104;86;21093;-87
2021/11/10 02:24:16;;;;;;;109.80;36.25;;;;;;;0.39;94.15;100583.23;4064689;86;21081;-92
2021/11/10 02:30:20;;;;;;;64.00;32.75;;;;;;;0.55;94.12;100571.91;4061753;86;21065;-89
2021/11/10 02:36:22;;;;;;;78.87;39.13;;;;;;;0.44;94.09;100570.30;4063279;86;21054;-88
2021/11/10 02:42:24;;;;;;;85.30;38.80;;;;;;;0.44;94.09;100570.30;4068462;86;21545;-88
2021/11/10 02:48:25;;;;;;;86.53;39.38;;;;;;;0.40;94.06;100570.55;4074028;86;21089;-88
2021/11/10 02:54:30;;;;;;;82.92;39.55;;;;;;;0.37;94.20;100546.33;4068855;86;21062;-89
2021/11/10 03:00:35;;;;;;;84.22;39.53;;;;;;;0.41;94.15;100563.55;4071529;86;21043;-88
2021/11/10 03:06:37;;;;;;;91.50;42.55;;;;;;;0.34;93.67;100550.09;4067721;86;21082;-88
2021/11/10 03:12:44;;;;;;;94.67;41.75;;;;;;;0.21;93.95;100551.97;4066149;86;21164;-88
2021/11/10 03:18:50;;;;;;;81.60;39.73;;;;;;;-0.15;93.90;100516.97;4005726;87;21049;-90
2021/11/10 03:25:06;;;;;;;82.85;41.55;;;;;;;-0.15;93.90;100516.97;4088517;86;21130;-88
2021/11/10 03:31:10;;;;;;;79.00;37.57;;;;;;;-0.13;94.16;100544.44;4092482;86;21046;-87
2021/11/10 03:37:15;;;;;;;78.05;34.83;;;;;;;-0.18;94.10;100546.30;4080642;86;21058;-88
2021/11/10 03:44:17;;;;;;;72.90;35.77;;;;;;;-0.27;94.07;100554.08;4083407;87;21698;-88
2021/11/10 03:57:26;;;;;;;83.82;36.33;;;;;;;-0.33;94.22;100532.83;4170764;85;21085;-88
2021/11/10 04:03:46;;;;;;;73.33;31.70;;;;;;;-0.44;94.16;100531.19;4174880;85;21026;-89
2021/11/10 04:09:50;;;;;;;63.85;30.05;;;;;;;-0.51;94.05;100530.09;4089274;87;21069;-88
2021/11/10 04:15:52;;;;;;;72.30;31.80;;;;;;;-0.52;94.16;100506.94;4162428;84;21029;-88
2021/11/10 04:21:56;;;;;;;68.57;31.13;;;;;;;-0.60;94.06;100506.67;4174659;84;21593;-88
2021/11/10 04:27:59;;;;;;;56.10;29.80;;;;;;;-0.70;94.05;100494.00;4167915;84;21065;-88
2021/11/10 04:34:04;;;;;;;56.20;29.02;;;;;;;-0.78;94.23;100491.83;4171341;84;20986;-89
2021/11/10 04:40:10;;;;;;;46.37;24.67;;;;;;;-0.90;93.94;100474.30;4170169;84;21073;-90
2021/11/10 04:46:34;;;;;;;52.77;25.33;;;;;;;-0.89;95.08;100471.36;4165959;84;21125;-89
2021/11/10 04:52:41;;;;;;;46.07;23.90;;;;;;;-0.75;94.51;100462.27;4161320;84;21045;-89
2021/11/10 04:58:43;;;;;;;32.08;18.60;;;;;;;-0.89;94.42;100467.87;4157494;84;21073;-90
2021/11/10 05:04:45;;;;;;;39.50;21.70;;;;;;;-0.74;94.56;100471.41;4170174;84;21073;-89
2021/11/10 05:10:49;;;;;;;57.90;27.57;;;;;;;-0.65;94.91;100483.27;4167978;84;21026;-90
2021/11/10 05:16:52;;;;;;;52.70;24.80;;;;;;;-0.80;93.74;100487.23;4162858;84;21671;-89
2021/11/10 05:22:54;;;;;;;52.90;23.43;;;;;;;-0.83;94.21;100493.14;4134147;84;21081;-90
2021/11/10 05:28:56;;;;;;;49.33;22.50;;;;;;;-0.92;94.10;100489.36;4024239;87;21655;-90
2021/11/10 05:34:59;;;;;;;73.03;25.80;;;;;;;-1.01;94.23;100486.91;4027594;87;21071;-88
2021/11/10 05:41:01;;;;;;;58.77;25.07;;;;;;;-1.03;94.54;100478.82;4033119;87;21130;-92
2021/11/10 05:47:04;;;;;;;66.00;25.90;;;;;;;-1.03;94.69;100489.58;3968560;88;21113;-90
2021/11/10 05:53:06;;;;;;;151.47;35.87;;;;;;;-0.97;94.75;100494.71;4031334;87;21129;-92
2021/11/10 05:59:10;;;;;;;141.43;33.00;;;;;;;-1.02;94.75;100482.62;4028202;87;21049;-88
2021/11/10 06:05:16;;;;;;;95.87;32.53;;;;;;;-1.10;94.57;100500.59;4025590;87;20993;-91
2021/11/10 06:11:17;;;;;;;62.55;26.15;;;;;;;-1.09;94.92;100479.36;4027183;86;21080;-91
2021/11/10 06:17:21;;;;;;;73.47;24.93;;;;;;;-0.92;95.81;100493.39;3970122;88;21669;-90
2021/11/10 06:23:22;;;;;;;49.53;23.40;;;;;;;-0.86;94.77;100490.98;4056324;86;21059;-89
2021/11/10 06:29:24;;;;;;;52.93;23.37;;;;;;;-0.91;95.04;100490.17;4054631;86;21110;-91
2021/11/10 06:35:28;;;;;;;61.40;25.17;;;;;;;-0.91;95.00;100490.97;4005512;87;21107;-91
2021/11/10 06:41:29;;;;;;;46.83;22.07;;;;;;;-0.97;94.91;100494.71;3996563;87;21099;-89
2021/11/10 06:47:31;;;;;;;44.67;21.77;;;;;;;-0.92;95.32;100510.05;4043655;87;21057;-91
2021/11/10 06:53:33;;;;;;;45.03;22.63;;;;;;;-0.87;95.34;100510.89;4048825;87;21569;-90
2021/11/10 06:59:39;;;;;;;45.83;22.90;;;;;;;-0.77;95.62;100515.50;4050388;87;21058;-90
2021/11/10 07:05:41;;;;;;;42.63;23.40;;;;;;;-0.64;95.68;100505.59;4077070;86;21237;-90
2021/11/10 07:11:45;;;;;;;61.27;24.37;;;;;;;-0.49;95.92;100507.78;4081297;86;22008;-89
2021/11/10 07:17:46;;;;;;;54.60;21.52;;;;;;;-0.31;96.18;100494.33;4070602;86;21105;-93
2021/11/10 07:24:09;;;;;;;72.70;23.63;;;;;;;-0.30;95.60;100494.63;3999506;87;21050;-89
2021/11/10 07:30:12;;;;;;;58.17;22.50;;;;;;;-0.19;95.68;100484.14;4017229;87;21023;-87
2021/11/10 07:36:17;;;;;;;54.83;23.02;;;;;;;-0.22;95.64;100484.11;4029427;87;21075;-87
2021/11/10 07:42:20;;;;;;;65.27;24.37;;;;;;;-0.08;96.32;100479.03;4007878;88;21316;-87
2021/11/10 07:48:26;;;;;;;52.83;21.93;;;;;;;0.03;96.01;100477.39;4017313;87;21537;-88
2021/11/10 07:54:27;;;;;;;46.00;22.70;;;;;;;0.18;96.30;100475.23;4019629;87;21154;-89
2021/11/10 08:00:29;;;;;;;48.83;23.83;;;;;;;0.27;95.95;100480.89;3989922;88;21066;-88
2021/11/10 08:06:33;;;;;;;44.83;22.90;;;;;;;0.53;96.08;100469.80;4043381;86;22046;-89
2021/11/10 08:12:41;;;;;;;50.60;24.00;;;;;;;0.53;96.08;100469.80;3995070;87;21744;-86
2021/11/10 08:18:43;;;;;;;57.03;24.87;;;;;;;0.67;96.52;100445.22;4053559;86;21082;-87
2021/11/10 08:24:48;;;;;;;47.45;23.87;;;;;;;0.67;96.52;100445.22;4063133;86;21099;-87
2021/11/10 08:30:48;;;;;;;46.13;25.43;;;;;;;0.85;96.36;100458.08;3986866;87;21206;-87
2021/11/10 08:36:50;;;;;;;46.88;22.98;;;;;;;1.14;96.52;100444.73;4020801;87;21093;-86
2021/11/10 08:42:52;;;;;;;50.30;25.10;;;;;;;1.31;96.44;100437.90;4034219;87;21545;-87
2021/11/10 08:48:55;;;;;;;43.68;24.30;;;;;;;1.44;96.44;100437.81;3990780;87;21129;-86
2021/11/10 08:54:57;;;;;;;43.78;24.25;;;;;;;1.76;96.90;100423.79;3994887;87;21058;-87
2021/11/10 09:00:59;;;;;;;45.88;25.48;;;;;;;1.94;96.61;100415.01;4053449;86;21098;-87
2021/11/10 09:07:00;;;;;;;43.50;25.08;;;;;;;2.16;96.68;100415.34;3981175;87;22044;-88
2021/11/10 09:13:03;;;;;;;53.63;28.45;;;;;;;2.36;96.60;100414.59;4026074;87;21094;-89
2021/11/10 09:19:05;;;;;;;49.42;27.37;;;;;;;2.67;97.09;100408.27;4017862;87;21027;-86
2021/11/10 09:25:10;;;;;;;47.08;26.12;;;;;;;3.08;97.28;100416.13;3977053;87;21142;-87
2021/11/10 09:31:12;;;;;;;49.77;28.30;;;;;;;3.19;96.50;100412.19;3960672;88;21381;-86
2021/11/10 09:37:14;;;;;;;49.48;26.80;;;;;;;3.56;96.81;100406.75;3964892;88;21110;-86
2021/11/10 09:43:16;;;;;;;47.23;27.02;;;;;;;3.88;97.23;100396.48;3966216;88;21126;-88
2021/11/10 09:49:18;;;;;;;52.95;28.05;;;;;;;4.02;96.61;100392.72;3969526;88;21073;-87
2021/11/10 09:55:24;;;;;;;56.90;30.48;;;;;;;4.10;96.75;100387.94;3995952;87;21139;-87
2021/11/10 10:01:26;;;;;;;51.77;29.48;;;;;;;4.37;96.86;100383.13;3929295;89;21189;-87
2021/11/10 10:07:28;;;;;;;59.77;32.60;;;;;;;5.47;98.77;100368.50;3960819;89;21102;-88
2021/11/10 10:13:29;;;;;;;48.42;27.62;;;;;;;6.60;97.68;100354.66;3994655;87;21069;-87
2021/11/10 10:19:40;;;;;;;54.95;29.98;;;;;;;7.52;96.28;100352.91;3986372;87;21660;-88
2021/11/10 10:26:00;;;;;;;55.40;30.25;;;;;;;8.30;95.96;100347.56;4032437;86;21642;-88
2021/11/10 10:32:04;;;;;;;53.10;31.62;;;;;;;8.37;95.12;100340.47;4009234;87;21027;-88
2021/11/10 10:38:16;;;;;;;54.90;30.05;;;;;;;8.43;94.57;100322.77;4039176;86;21183;-89
2021/11/10 10:44:22;;;;;;;55.38;30.52;;;;;;;8.72;95.07;100302.88;3988770;87;21079;-89
2021/11/10 10:50:46;;;;;;;57.57;28.10;;;;;;;8.92;93.90;100298.80;4054588;86;21094;-88
2021/11/10 10:57:02;;;;;;;53.92;28.50;;;;;;;8.84;93.83;100276.45;4056079;86;21090;-94
2021/11/10 11:03:28;;;;;;;50.98;27.07;;;;;;;9.00;93.65;100276.09;4058199;86;21051;-92
2021/11/10 11:09:45;;;;;;;50.55;27.25;;;;;;;9.15;93.22;100270.56;4014883;87;21101;-90
2021/11/10 11:16:09;;;;;;;51.33;27.82;;;;;;;9.00;92.53;100260.27;4019306;87;21102;-88
2021/11/10 11:22:11;;;;;;;55.40;29.85;;;;;;;8.97;91.70;100249.42;3998132;87;21092;-88
2021/11/10 11:28:15;;;;;;;56.60;30.05;;;;;;;8.81;91.47;100249.81;4009079;87;21090;-89
2021/11/10 11:34:17;;;;;;;50.12;27.95;;;;;;;8.91;91.37;100230.86;3970558;88;21110;-91
2021/11/10 11:40:22;;;;;;;53.02;27.15;;;;;;;9.01;90.69;100220.32;4060353;86;21060;-91
2021/11/10 11:46:23;;;;;;;45.40;24.67;;;;;;;9.02;90.32;100216.45;3974649;88;21099;-91
2021/11/10 11:52:29;;;;;;;43.20;23.15;;;;;;;9.02;89.58;100202.02;4068182;87;21010;-89
2021/11/10 11:58:42;;;;;;;41.20;22.20;;;;;;;9.13;89.40;100186.80;4058483;87;21032;-91
2021/11/10 12:04:45;;;;;;;41.02;20.90;;;;;;;9.27;88.90;100182.61;4051150;86;21117;-91
2021/11/10 12:10:47;;;;;;;40.80;21.37;;;;;;;9.45;88.25;100177.77;4039435;86;21128;-89
2021/11/10 12:17:13;;;;;;;35.10;20.57;;;;;;;9.58;87.23;100176.66;4166320;84;21061;-90
2021/11/10 12:23:14;;;;;;;34.67;21.17;;;;;;;9.61;86.04;100162.87;4158567;84;21544;-92
2021/11/10 12:29:20;;;;;;;34.18;21.87;;;;;;;9.77;86.66;100153.67;4158827;84;21022;-90
2021/11/10 12:35:39;;;;;;;43.90;22.80;;;;;;;9.86;86.07;100149.44;4124359;84;21065;-92
2021/11/10 12:41:50;;;;;;;33.67;21.12;;;;;;;9.91;85.72;100140.45;4148267;84;21647;-93
2021/11/10 12:47:52;;;;;;;44.30;21.65;;;;;;;9.94;85.31;100134.85;4151229;84;21068;-89
2021/11/10 12:54:04;;;;;;;35.40;20.35;;;;;;;10.01;84.86;100141.34;4151972;84;21587;-90
2021/11/10 13:00:12;;;;;;;51.15;22.30;;;;;;;10.10;84.44;100131.69;4153755;84;21034;-90
2021/11/10 13:06:21;;;;;;;41.92;23.02;;;;;;;10.13;83.83;100124.92;4151884;84;21561;-89
2021/11/10 13:12:22;;;;;;;44.05;21.97;;;;;;;10.11;83.64;100114.11;4155074;84;21050;-93
2021/11/10 13:18:25;;;;;;;39.67;22.13;;;;;;;10.11;83.28;100105.91;4154002;84;21061;-90
2021/11/10 13:24:28;;;;;;;47.25;22.62;;;;;;;10.04;83.06;100108.41;4152088;84;21070;-89
2021/11/10 13:30:58;;;;;;;36.10;21.80;;;;;;;9.97;82.84;100104.87;4152116;84;21074;-90
2021/11/10 13:37:00;;;;;;;40.85;21.85;;;;;;;9.88;82.53;100101.45;4156433;84;21050;-90
2021/11/10 13:43:02;;;;;;;48.13;24.37;;;;;;;9.80;82.38;100090.65;4162166;84;20979;-88
2021/11/10 13:49:21;;;;;;;46.33;23.65;;;;;;;9.73;82.16;100091.22;4160126;84;21571;-89
2021/11/10 13:55:23;;;;;;;42.43;22.80;;;;;;;9.64;82.18;100076.06;4165321;84;21001;-88
2021/11/10 14:01:24;;;;;;;46.40;22.25;;;;;;;9.55;82.04;100079.71;4154343;84;21103;-90
2021/11/10 14:07:30;;;;;;;42.43;21.30;;;;;;;9.47;81.99;100079.25;4152561;84;21042;-90
2021/11/10 14:13:32;;;;;;;43.00;21.45;;;;;;;9.34;81.93;100073.57;4149043;84;21066;-90
2021/11/10 14:19:33;;;;;;;47.08;22.42;;;;;;;9.24;81.96;100060.34;4151701;84;21049;-89
2021/11/10 14:25:53;;;;;;;49.48;22.90;;;;;;;9.13;81.91;100055.09;4142619;84;21090;-88
2021/11/10 14:32:01;;;;;;;44.50;22.07;;;;;;;8.96;81.89;100055.85;4016227;87;21273;-89
2021/11/10 14:38:15;;;;;;;49.53;22.02;;;;;;;8.73;81.97;100044.55;4015299;87;21075;-88
2021/11/10 14:44:33;;;;;;;41.68;24.50;;;;;;;8.42;82.20;100042.05;4161300;84;21045;-90
2021/11/10 14:50:37;;;;;;;40.88;22.27;;;;;;;8.16;82.40;100026.46;4087144;86;21110;-89
2021/11/10 14:57:02;;;;;;;45.70;22.58;;;;;;;7.82;82.62;100026.16;4093158;86;21097;-88
2021/11/10 15:03:30;;;;;;;43.30;23.05;;;;;;;7.47;82.46;100020.13;4089438;86;21081;-89
2021/11/10 15:09:38;;;;;;;55.55;26.82;;;;;;;7.27;83.00;100020.88;4085404;86;21076;-88
2021/11/10 15:15:46;;;;;;;55.55;27.80;;;;;;;7.03;83.14;100016.58;4150078;84;21074;-91
2021/11/10 15:21:50;;;;;;;51.65;27.15;;;;;;;6.82;83.37;100010.82;4087190;86;21069;-89
2021/11/10 15:27:55;;;;;;;45.50;25.85;;;;;;;6.62;83.48;100009.61;4156525;84;21561;-93
2021/11/10 15:33:57;;;;;;;39.92;20.70;;;;;;;6.49;83.45;100008.43;4159540;84;21667;-89
2021/11/10 15:39:59;;;;;;;60.15;26.27;;;;;;;6.22;83.67;100007.68;4155890;84;21064;-89
2021/11/10 15:46:06;;;;;;;63.13;28.98;;;;;;;5.97;83.42;100006.33;4160424;84;21046;-88
2021/11/10 15:52:06;;;;;;;59.75;29.32;;;;;;;5.76;83.91;100007.48;4161252;84;21053;-89
2021/11/10 15:58:08;;;;;;;62.33;27.37;;;;;;;5.46;83.93;100007.61;4157296;84;21021;-89
2021/11/10 16:04:10;;;;;;;67.97;28.05;;;;;;;5.17;84.10;100009.53;4155667;84;21053;-90
2021/11/10 16:10:12;;;;;;;61.28;29.25;;;;;;;5.04;84.35;100019.97;4149985;84;21601;-89
2021/11/10 16:16:13;;;;;;;54.70;26.55;;;;;;;4.76;84.45;100023.99;4161644;84;21108;-89
2021/11/10 16:22:15;;;;;;;55.55;26.82;;;;;;;4.57;84.97;100024.18;4149191;84;21109;-88
2021/11/10 16:28:20;;;;;;;57.62;29.25;;;;;;;4.37;84.92;100024.70;4179282;84;21052;-89
2021/11/10 16:34:20;;;;;;;69.70;33.65;;;;;;;4.16;84.96;100035.81;4081641;86;21120;-89
2021/11/10 16:40:21;;;;;;;56.98;24.70;;;;;;;3.98;85.25;100019.70;4026513;87;21150;-91
2021/11/10 16:46:22;;;;;;;59.53;27.15;;;;;;;3.84;85.29;100028.42;4085697;86;21656;-88
2021/11/10 16:52:24;;;;;;;65.45;31.93;;;;;;;3.62;85.30;100030.55;4083920;86;21082;-88
2021/11/10 16:58:34;;;;;;;76.50;34.78;;;;;;;3.42;85.90;100030.17;4088092;86;21140;-89
2021/11/10 17:04:31;;;;;;;61.00;30.25;;;;;;;3.33;85.90;100036.05;4083151;86;21030;-90
2021/11/10 17:10:33;;;;;;;89.40;41.30;;;;;;;3.22;86.30;100030.05;4083622;86;21046;-88
2021/11/10 17:16:36;;;;;;;106.47;48.42;;;;;;;3.15;86.50;100035.05;4082876;86;21145;-91
2021/11/10 17:22:38;;;;;;;112.37;51.55;;;;;;;3.05;86.68;100023.87;4078076;86;21098;-89
2021/11/10 17:28:40;;;;;;;134.78;64.77;;;;;;;2.84;86.50;100040.27;4060930;86;21042;-88
2021/11/10 17:34:42;;;;;;;120.33;59.60;;;;;;;2.75;86.86;100027.19;4057478;86;21030;-90
2021/11/10 17:40:45;;;;;;;183.35;89.55;;;;;;;2.67;87.04;100033.28;4061717;85;21582;-89
2021/11/10 17:46:46;;;;;;;140.43;70.47;;;;;;;2.63;87.12;100033.61;4060243;86;21069;-89
2021/11/10 17:52:48;;;;;;;147.50;72.80;;;;;;;2.56;87.11;100036.45;4058981;86;21085;-90
2021/11/10 17:58:49;;;;;;;91.72;46.83;;;;;;;2.36;87.12;100023.30;4053585;86;21666;-89
2021/11/10 18:04:51;;;;;;;106.07;52.83;;;;;;;2.23;87.93;100024.86;4048956;86;22065;-89
2021/11/10 18:10:52;;;;;;;148.57;72.22;;;;;;;2.21;87.48;100040.55;4057809;85;21684;-90
2021/11/10 18:16:54;;;;;;;182.82;90.25;;;;;;;1.97;87.21;100037.16;4053549;86;21086;-89
2021/11/10 18:22:56;;;;;;;117.00;60.10;;;;;;;1.94;88.13;100044.50;4053053;86;21058;-89
2021/11/10 18:28:58;;;;;;;179.57;82.35;;;;;;;1.92;88.56;100030.48;4060210;86;21122;-89
2021/11/10 18:35:00;;;;;;;194.37;91.47;;;;;;;1.90;87.83;100028.62;4052034;86;21102;-87
2021/11/10 18:41:02;;;;;;;148.78;71.92;;;;;;;1.91;88.36;100030.21;4051616;86;21089;-90
2021/11/10 18:47:05;;;;;;;141.15;67.08;;;;;;;1.81;87.85;100018.23;4050828;86;21071;-90
2021/11/10 18:53:06;;;;;;;158.60;75.72;;;;;;;1.75;88.52;100029.39;4052073;86;21118;-89
2021/11/10 18:59:09;;;;;;;156.95;78.30;;;;;;;1.69;88.82;100028.67;3942382;86;10000522;-90
2021/11/10 19:05:18;;;;;;;146.75;73.02;;;;;;;1.64;88.72;100038.19;3977684;87;21247;-89
2021/11/10 19:11:50;;;;;;;172.57;83.65;;;;;;;1.59;88.82;100042.30;3990922;87;21510;-88
2021/11/10 19:23:51;;;;;;;176.22;85.10;;;;;;;1.43;88.93;100053.84;3945243;87;22048;-87
2021/11/10 19:29:53;;;;;;;171.57;85.60;;;;;;;1.31;88.93;100052.66;4024707;87;21046;-90
2021/11/10 19:35:54;;;;;;;199.50;102.05;;;;;;;1.23;89.41;100055.45;4023884;87;21046;-89
2021/11/10 19:41:57;;;;;;;211.47;103.10;;;;;;;1.22;89.69;100055.17;4025530;87;21046;-89
2021/11/10 19:47:59;;;;;;;174.45;85.75;;;;;;;1.17;89.62;100040.95;4152567;84;21112;-90
2021/11/10 19:54:04;;;;;;;144.93;74.90;;;;;;;1.12;89.93;100051.80;4151084;84;21750;-90
2021/11/10 20:00:12;;;;;;;175.35;82.65;;;;;;;1.12;90.33;100044.52;4145966;84;21623;-87
2021/11/10 20:06:15;;;;;;;150.68;77.03;;;;;;;1.12;89.38;100035.62;4064302;86;21100;-88
2021/11/10 20:12:19;;;;;;;171.95;84.55;;;;;;;1.04;89.57;100041.64;4065063;86;21133;-88
2021/11/10 20:18:21;;;;;;;173.62;85.75;;;;;;;1.01;90.53;100053.81;3999774;86;31445;-92
2021/11/10 20:24:24;;;;;;;181.37;90.20;;;;;;;0.93;89.75;100055.79;3936765;87;21149;-91
2021/11/10 20:30:30;;;;;;;272.50;122.15;;;;;;;0.78;89.68;100057.84;3976582;88;21208;-88
2021/11/10 20:36:31;;;;;;;192.87;99.97;;;;;;;0.69;90.02;100064.37;3990458;88;21688;-90
2021/11/10 20:42:33;;;;;;;187.18;89.50;;;;;;;0.59;90.05;100058.30;3976694;88;21100;-89
2021/11/10 20:48:34;;;;;;;167.03;87.10;;;;;;;0.55;90.22;100045.92;3982845;88;21428;-89
2021/11/10 20:54:38;;;;;;;217.53;106.87;;;;;;;0.55;90.74;100045.92;3983758;87;21475;-91
2021/11/10 21:00:46;;;;;;;183.55;93.37;;;;;;;0.49;90.69;100032.25;3961899;88;21151;-87
2021/11/10 21:06:48;;;;;;;148.30;78.92;;;;;;;0.56;91.08;100034.61;3983384;88;21108;-88
2021/11/10 21:12:51;;;;;;;210.75;101.38;;;;;;;0.56;90.81;100031.92;3975856;87;21096;-88
2021/11/10 21:18:53;;;;;;;234.43;113.10;;;;;;;0.43;90.18;100029.34;3977803;87;21100;-88
2021/11/10 21:24:56;;;;;;;191.15;94.40;;;;;;;0.14;90.63;99985.45;3984059;87;21117;-87
2021/11/10 21:30:57;;;;;;;232.15;112.32;;;;;;;-0.16;91.27;99999.16;4036747;87;22146;-88
2021/11/10 21:37:02;;;;;;;181.52;90.03;;;;;;;-0.16;91.27;99999.16;4012770;86;22167;-91
2021/11/10 21:43:04;;;;;;;234.52;115.75;;;;;;;-0.13;90.62;100026.84;4039686;87;21173;-88
2021/11/10 21:49:07;;;;;;;233.07;115.47;;;;;;;-0.19;91.67;100009.92;4050584;87;21896;-89
2021/11/10 21:55:12;;;;;;;198.15;99.58;;;;;;;-0.16;91.81;100011.27;4042030;87;21106;-88
2021/11/10 22:01:15;;;;;;;208.73;102.17;;;;;;;-0.17;91.08;100010.98;4031531;87;21757;-87
2021/11/10 22:07:17;;;;;;;196.77;104.97;;;;;;;-0.22;91.40;99994.34;4038316;86;21597;-89
2021/11/10 22:13:19;;;;;;;194.05;98.15;;;;;;;-0.20;91.67;99996.21;4004076;86;21097;-90
2021/11/10 22:19:21;;;;;;;183.15;92.35;;;;;;;-0.04;92.29;99992.86;4035199;87;21084;-90
2021/11/10 22:25:29;;;;;;;189.37;94.80;;;;;;;-0.10;91.65;100010.95;4029194;87;21101;-89
2021/11/10 22:31:32;;;;;;;183.90;95.28;;;;;;;0.03;92.42;100011.64;4022268;87;21105;-90
2021/11/10 22:37:34;;;;;;;171.20;88.05;;;;;;;0.00;91.82;100015.45;4025443;87;21105;-91
2021/11/10 22:43:37;;;;;;;204.87;101.12;;;;;;;-0.06;92.00;100014.67;4027599;87;21082;-91
2021/11/10 22:49:39;;;;;;;209.80;109.40;;;;;;;-0.05;91.41;100004.72;4025154;87;21139;-90
2021/11/10 22:55:40;;;;;;;197.78;97.95;;;;;;;-0.21;92.16;100015.33;4024523;86;21073;-89
2021/11/10 23:01:43;;;;;;;208.90;101.78;;;;;;;-0.23;91.50;100022.34;4022469;87;21592;-89
2021/11/10 23:07:45;;;;;;;172.40;91.78;;;;;;;-0.24;91.88;100016.70;3999316;86;21118;-90
2021/11/10 23:13:47;;;;;;;209.22;102.82;;;;;;;-0.12;92.91;100016.34;4027278;87;21069;-90
2021/11/10 23:19:49;;;;;;;179.32;90.00;;;;;;;-0.19;91.91;100016.64;3923826;89;21094;-92
2021/11/10 23:25:50;;;;;;;173.35;85.60;;;;;;;-0.26;92.30;100026.13;3865138;91;21089;-89
2021/11/10 23:31:52;;;;;;;203.45;102.42;;;;;;;-0.03;93.06;100036.99;3885167;89;21103;-89
2021/11/10 23:37:55;;;;;;;176.95;89.60;;;;;;;0.11;92.90;100043.09;3900961;90;21749;-90
2021/11/10 23:43:58;;;;;;;191.17;96.63;;;;;;;0.21;92.77;100047.03;3891762;90;22234;-89
2021/11/10 23:50:01;;;;;;;195.35;96.05;;;;;;;-0.10;91.51;100028.45;3890223;90;21150;-89
2021/11/10 23:56:03;;;;;;;203.30;96.03;;;;;;;-0.24;91.64;100040.92;3831382;92;21199;-89
